sensor_id;sensor_type;location;lat;lon;timestamp;P1;durP1;ratioP1;P2;durP2;ratioP2
16579;SDS011;8402;51.466;6.806;2023-07-20T00:00:40;10.80;;;4.78;;
16579;SDS011;8402;51.466;6.806;2023-07-20T00:03:10;9.23;;;4.32;;
16579;SDS011;8402;51.466;6.806;2023-07-20T00:05:46;9.38;;;5.07;;
16579;SDS011;8402;51.466;6.806;2023-07-20T00:08:17;9.20;;;4.75;;
16579;SDS011;8402;51.466;6.806;2023-07-20T00:10:47;8.02;;;4.45;;
16579;SDS011;8402;51.466;6.806;2023-07-20T00:13:17;7.07;;;4.28;;
16579;SDS011;8402;51.466;6.806;2023-07-20T00:15:47;9.13;;;4.30;;
16579;SDS011;8402;51.466;6.806;2023-07-20T00:18:17;7.60;;;4.65;;
16579;SDS011;8402;51.466;6.806;2023-07-20T00:20:50;5.95;;;4.40;;
16579;SDS011;8402;51.466;6.806;2023-07-20T00:23:20;12.43;;;5.88;;
16579;SDS011;8402;51.466;6.806;2023-07-20T00:25:50;7.35;;;4.40;;
16579;SDS011;8402;51.466;6.806;2023-07-20T00:28:20;8.45;;;4.50;;
16579;SDS011;8402;51.466;6.806;2023-07-20T00:30:50;7.78;;;4.00;;
16579;SDS011;8402;51.466;6.806;2023-07-20T00:33:20;9.25;;;4.53;;
16579;SDS011;8402;51.466;6.806;2023-07-20T00:35:52;7.30;;;4.47;;
16579;SDS011;8402;51.466;6.806;2023-07-20T00:38:22;7.45;;;3.90;;
16579;SDS011;8402;51.466;6.806;2023-07-20T00:40:52;6.45;;;4.38;;
16579;SDS011;8402;51.466;6.806;2023-07-20T00:43:22;7.55;;;4.82;;
16579;SDS011;8402;51.466;6.806;2023-07-20T00:45:52;12.45;;;4.35;;
16579;SDS011;8402;51.466;6.806;2023-07-20T00:48:22;5.65;;;3.38;;
16579;SDS011;8402;51.466;6.806;2023-07-20T00:50:55;7.78;;;4.28;;
16579;SDS011;8402;51.466;6.806;2023-07-20T00:53:27;10.05;;;4.10;;
16579;SDS011;8402;51.466;6.806;2023-07-20T00:55:58;10.15;;;4.10;;
16579;SDS011;8402;51.466;6.806;2023-07-20T00:58:27;6.82;;;3.70;;
16579;SDS011;8402;51.466;6.806;2023-07-20T01:00:57;7.85;;;4.40;;
16579;SDS011;8402;51.466;6.806;2023-07-20T01:03:27;6.22;;;4.22;;
16579;SDS011;8402;51.466;6.806;2023-07-20T01:06:04;8.15;;;4.10;;
16579;SDS011;8402;51.466;6.806;2023-07-20T01:08:43;7.78;;;4.20;;
16579;SDS011;8402;51.466;6.806;2023-07-20T01:11:23;11.18;;;4.45;;
16579;SDS011;8402;51.466;6.806;2023-07-20T01:14:04;8.75;;;4.57;;
16579;SDS011;8402;51.466;6.806;2023-07-20T01:16:35;6.22;;;3.88;;
16579;SDS011;8402;51.466;6.806;2023-07-20T01:19:05;10.70;;;4.25;;
16579;SDS011;8402;51.466;6.806;2023-07-20T01:21:37;7.78;;;3.95;;
16579;SDS011;8402;51.466;6.806;2023-07-20T01:27:25;10.57;;;4.28;;
16579;SDS011;8402;51.466;6.806;2023-07-20T01:30:19;7.03;;;4.22;;
16579;SDS011;8402;51.466;6.806;2023-07-20T01:33:04;10.27;;;4.88;;
16579;SDS011;8402;51.466;6.806;2023-07-20T01:35:37;7.32;;;4.60;;
16579;SDS011;8402;51.466;6.806;2023-07-20T01:38:07;8.75;;;4.63;;
16579;SDS011;8402;51.466;6.806;2023-07-20T01:40:38;10.23;;;4.50;;
16579;SDS011;8402;51.466;6.806;2023-07-20T01:43:10;7.85;;;4.40;;
16579;SDS011;8402;51.466;6.806;2023-07-20T01:45:41;6.88;;;4.20;;
16579;SDS011;8402;51.466;6.806;2023-07-20T01:48:13;7.80;;;4.35;;
16579;SDS011;8402;51.466;6.806;2023-07-20T01:50:43;9.73;;;4.47;;
16579;SDS011;8402;51.466;6.806;2023-07-20T01:53:13;9.65;;;4.55;;
16579;SDS011;8402;51.466;6.806;2023-07-20T01:55:43;7.32;;;4.60;;
16579;SDS011;8402;51.466;6.806;2023-07-20T01:58:13;8.68;;;5.10;;
16579;SDS011;8402;51.466;6.806;2023-07-20T02:00:43;8.40;;;4.55;;
16579;SDS011;8402;51.466;6.806;2023-07-20T02:03:15;12.95;;;4.95;;
16579;SDS011;8402;51.466;6.806;2023-07-20T02:05:45;10.20;;;4.55;;
16579;SDS011;8402;51.466;6.806;2023-07-20T02:08:15;12.15;;;4.90;;
16579;SDS011;8402;51.466;6.806;2023-07-20T02:10:45;12.07;;;5.47;;
16579;SDS011;8402;51.466;6.806;2023-07-20T02:13:16;17.98;;;6.35;;
16579;SDS011;8402;51.466;6.806;2023-07-20T02:15:49;13.90;;;6.78;;
16579;SDS011;8402;51.466;6.806;2023-07-20T02:18:24;12.13;;;5.88;;
16579;SDS011;8402;51.466;6.806;2023-07-20T02:20:54;12.63;;;5.78;;
16579;SDS011;8402;51.466;6.806;2023-07-20T02:23:24;11.52;;;5.72;;
16579;SDS011;8402;51.466;6.806;2023-07-20T02:25:55;12.32;;;5.95;;
16579;SDS011;8402;51.466;6.806;2023-07-20T02:28:31;10.13;;;5.90;;
16579;SDS011;8402;51.466;6.806;2023-07-20T02:31:08;14.20;;;6.72;;
16579;SDS011;8402;51.466;6.806;2023-07-20T02:33:40;13.77;;;6.65;;
16579;SDS011;8402;51.466;6.806;2023-07-20T02:36:10;11.30;;;6.78;;
16579;SDS011;8402;51.466;6.806;2023-07-20T02:38:43;17.17;;;6.97;;
16579;SDS011;8402;51.466;6.806;2023-07-20T02:41:13;12.40;;;6.25;;
16579;SDS011;8402;51.466;6.806;2023-07-20T02:43:44;10.68;;;5.28;;
16579;SDS011;8402;51.466;6.806;2023-07-20T02:46:13;12.45;;;4.82;;
16579;SDS011;8402;51.466;6.806;2023-07-20T02:48:46;9.20;;;4.85;;
16579;SDS011;8402;51.466;6.806;2023-07-20T02:51:16;11.15;;;5.38;;
16579;SDS011;8402;51.466;6.806;2023-07-20T02:53:46;10.15;;;5.63;;
16579;SDS011;8402;51.466;6.806;2023-07-20T02:56:16;9.13;;;5.55;;
16579;SDS011;8402;51.466;6.806;2023-07-20T02:58:46;9.48;;;4.93;;
16579;SDS011;8402;51.466;6.806;2023-07-20T03:01:16;14.75;;;7.07;;
16579;SDS011;8402;51.466;6.806;2023-07-20T03:03:49;10.13;;;5.55;;
16579;SDS011;8402;51.466;6.806;2023-07-20T03:06:19;10.68;;;6.07;;
16579;SDS011;8402;51.466;6.806;2023-07-20T03:08:49;9.82;;;7.05;;
16579;SDS011;8402;51.466;6.806;2023-07-20T03:11:20;13.95;;;7.40;;
16579;SDS011;8402;51.466;6.806;2023-07-20T03:13:50;11.52;;;6.90;;
16579;SDS011;8402;51.466;6.806;2023-07-20T03:16:20;13.95;;;7.97;;
16579;SDS011;8402;51.466;6.806;2023-07-20T03:18:54;14.25;;;8.90;;
16579;SDS011;8402;51.466;6.806;2023-07-20T03:21:24;14.27;;;8.00;;
16579;SDS011;8402;51.466;6.806;2023-07-20T03:23:54;16.15;;;8.85;;
16579;SDS011;8402;51.466;6.806;2023-07-20T03:26:24;15.07;;;8.85;;
16579;SDS011;8402;51.466;6.806;2023-07-20T03:28:54;14.18;;;8.70;;
16579;SDS011;8402;51.466;6.806;2023-07-20T03:31:26;14.73;;;8.80;;
16579;SDS011;8402;51.466;6.806;2023-07-20T03:33:59;16.50;;;8.80;;
16579;SDS011;8402;51.466;6.806;2023-07-20T03:36:29;14.23;;;9.57;;
16579;SDS011;8402;51.466;6.806;2023-07-20T03:38:59;17.63;;;9.88;;
16579;SDS011;8402;51.466;6.806;2023-07-20T03:41:29;15.07;;;9.55;;
16579;SDS011;8402;51.466;6.806;2023-07-20T03:43:59;14.35;;;8.60;;
16579;SDS011;8402;51.466;6.806;2023-07-20T03:46:29;17.33;;;9.10;;
16579;SDS011;8402;51.466;6.806;2023-07-20T03:49:03;17.05;;;9.13;;
16579;SDS011;8402;51.466;6.806;2023-07-20T03:51:33;14.48;;;8.48;;
16579;SDS011;8402;51.466;6.806;2023-07-20T03:54:03;19.50;;;9.93;;
16579;SDS011;8402;51.466;6.806;2023-07-20T03:56:34;15.02;;;9.32;;
16579;SDS011;8402;51.466;6.806;2023-07-20T03:59:04;14.10;;;8.88;;
16579;SDS011;8402;51.466;6.806;2023-07-20T04:01:34;15.97;;;10.63;;
16579;SDS011;8402;51.466;6.806;2023-07-20T04:04:08;22.17;;;13.15;;
16579;SDS011;8402;51.466;6.806;2023-07-20T04:06:38;21.52;;;13.88;;
16579;SDS011;8402;51.466;6.806;2023-07-20T04:09:11;20.35;;;13.88;;
16579;SDS011;8402;51.466;6.806;2023-07-20T04:11:41;18.75;;;13.82;;
16579;SDS011;8402;51.466;6.806;2023-07-20T04:14:11;20.60;;;13.88;;
16579;SDS011;8402;51.466;6.806;2023-07-20T04:16:41;18.48;;;12.63;;
16579;SDS011;8402;51.466;6.806;2023-07-20T04:19:13;19.67;;;13.15;;
16579;SDS011;8402;51.466;6.806;2023-07-20T04:21:44;21.42;;;13.57;;
16579;SDS011;8402;51.466;6.806;2023-07-20T04:24:14;25.08;;;12.93;;
16579;SDS011;8402;51.466;6.806;2023-07-20T04:26:44;23.02;;;13.65;;
16579;SDS011;8402;51.466;6.806;2023-07-20T04:29:14;21.63;;;12.73;;
16579;SDS011;8402;51.466;6.806;2023-07-20T04:31:43;20.83;;;12.82;;
16579;SDS011;8402;51.466;6.806;2023-07-20T04:34:16;18.65;;;12.43;;
16579;SDS011;8402;51.466;6.806;2023-07-20T04:36:46;20.48;;;12.55;;
16579;SDS011;8402;51.466;6.806;2023-07-20T04:39:16;18.77;;;12.55;;
16579;SDS011;8402;51.466;6.806;2023-07-20T04:41:57;22.23;;;12.25;;
16579;SDS011;8402;51.466;6.806;2023-07-20T04:44:27;18.48;;;12.20;;
16579;SDS011;8402;51.466;6.806;2023-07-20T04:46:57;19.73;;;12.93;;
16579;SDS011;8402;51.466;6.806;2023-07-20T04:49:29;16.97;;;11.23;;
16579;SDS011;8402;51.466;6.806;2023-07-20T04:51:59;17.17;;;11.00;;
16579;SDS011;8402;51.466;6.806;2023-07-20T04:54:29;19.80;;;11.27;;
16579;SDS011;8402;51.466;6.806;2023-07-20T04:56:59;14.77;;;10.55;;
16579;SDS011;8402;51.466;6.806;2023-07-20T04:59:29;16.45;;;10.35;;
16579;SDS011;8402;51.466;6.806;2023-07-20T05:01:59;13.82;;;9.32;;
16579;SDS011;8402;51.466;6.806;2023-07-20T05:04:31;12.52;;;9.02;;
16579;SDS011;8402;51.466;6.806;2023-07-20T05:07:04;13.60;;;8.67;;
16579;SDS011;8402;51.466;6.806;2023-07-20T05:09:34;15.30;;;8.85;;
16579;SDS011;8402;51.466;6.806;2023-07-20T05:12:05;14.80;;;8.90;;
16579;SDS011;8402;51.466;6.806;2023-07-20T05:14:35;11.10;;;8.20;;
16579;SDS011;8402;51.466;6.806;2023-07-20T05:17:05;12.65;;;8.70;;
16579;SDS011;8402;51.466;6.806;2023-07-20T05:19:37;12.10;;;7.47;;
16579;SDS011;8402;51.466;6.806;2023-07-20T05:22:10;10.50;;;8.30;;
16579;SDS011;8402;51.466;6.806;2023-07-20T05:24:40;10.67;;;7.07;;
16579;SDS011;8402;51.466;6.806;2023-07-20T05:27:10;10.65;;;6.78;;
16579;SDS011;8402;51.466;6.806;2023-07-20T05:29:43;11.45;;;7.63;;
16579;SDS011;8402;51.466;6.806;2023-07-20T05:32:13;11.20;;;7.22;;
16579;SDS011;8402;51.466;6.806;2023-07-20T05:34:46;11.60;;;7.30;;
16579;SDS011;8402;51.466;6.806;2023-07-20T05:37:15;11.90;;;7.50;;
16579;SDS011;8402;51.466;6.806;2023-07-20T05:39:45;10.02;;;7.13;;
16579;SDS011;8402;51.466;6.806;2023-07-20T05:42:15;11.02;;;6.22;;
16579;SDS011;8402;51.466;6.806;2023-07-20T05:44:45;7.53;;;5.90;;
16579;SDS011;8402;51.466;6.806;2023-07-20T05:47:16;8.50;;;6.03;;
16579;SDS011;8402;51.466;6.806;2023-07-20T05:49:49;6.60;;;5.07;;
16579;SDS011;8402;51.466;6.806;2023-07-20T05:52:19;8.60;;;5.60;;
16579;SDS011;8402;51.466;6.806;2023-07-20T05:54:48;6.60;;;4.55;;
16579;SDS011;8402;51.466;6.806;2023-07-20T05:57:18;6.00;;;4.90;;
16579;SDS011;8402;51.466;6.806;2023-07-20T05:59:48;5.05;;;4.50;;
16579;SDS011;8402;51.466;6.806;2023-07-20T06:02:18;6.17;;;4.00;;
16579;SDS011;8402;51.466;6.806;2023-07-20T06:04:50;6.03;;;4.10;;
16579;SDS011;8402;51.466;6.806;2023-07-20T06:07:21;6.43;;;5.00;;
16579;SDS011;8402;51.466;6.806;2023-07-20T06:09:51;11.23;;;4.63;;
16579;SDS011;8402;51.466;6.806;2023-07-20T06:12:21;6.93;;;4.50;;
16579;SDS011;8402;51.466;6.806;2023-07-20T06:14:50;8.25;;;4.45;;
16579;SDS011;8402;51.466;6.806;2023-07-20T06:17:20;5.45;;;4.22;;
16579;SDS011;8402;51.466;6.806;2023-07-20T06:19:53;7.53;;;4.63;;
16579;SDS011;8402;51.466;6.806;2023-07-20T06:22:23;6.33;;;4.60;;
16579;SDS011;8402;51.466;6.806;2023-07-20T06:24:53;5.88;;;4.80;;
16579;SDS011;8402;51.466;6.806;2023-07-20T06:27:22;5.75;;;4.80;;
16579;SDS011;8402;51.466;6.806;2023-07-20T06:29:55;6.40;;;4.32;;
16579;SDS011;8402;51.466;6.806;2023-07-20T06:32:25;6.18;;;4.68;;
16579;SDS011;8402;51.466;6.806;2023-07-20T06:34:57;5.43;;;4.07;;
16579;SDS011;8402;51.466;6.806;2023-07-20T06:37:27;5.30;;;3.97;;
16579;SDS011;8402;51.466;6.806;2023-07-20T06:39:57;4.65;;;3.72;;
16579;SDS011;8402;51.466;6.806;2023-07-20T06:42:30;4.20;;;3.53;;
16579;SDS011;8402;51.466;6.806;2023-07-20T06:45:03;5.20;;;3.65;;
16579;SDS011;8402;51.466;6.806;2023-07-20T06:47:34;3.90;;;3.25;;
16579;SDS011;8402;51.466;6.806;2023-07-20T06:50:07;6.15;;;3.60;;
16579;SDS011;8402;51.466;6.806;2023-07-20T06:52:43;5.07;;;3.00;;
16579;SDS011;8402;51.466;6.806;2023-07-20T06:55:14;3.78;;;3.00;;
16579;SDS011;8402;51.466;6.806;2023-07-20T06:57:48;4.30;;;3.10;;
16579;SDS011;8402;51.466;6.806;2023-07-20T07:00:18;4.20;;;2.53;;
16579;SDS011;8402;51.466;6.806;2023-07-20T07:02:49;3.22;;;2.45;;
16579;SDS011;8402;51.466;6.806;2023-07-20T07:05:21;3.95;;;2.38;;
16579;SDS011;8402;51.466;6.806;2023-07-20T07:08:01;2.38;;;1.95;;
16579;SDS011;8402;51.466;6.806;2023-07-20T07:10:31;2.70;;;1.85;;
16579;SDS011;8402;51.466;6.806;2023-07-20T07:13:01;1.50;;;1.40;;
16579;SDS011;8402;51.466;6.806;2023-07-20T07:15:31;1.55;;;1.45;;
16579;SDS011;8402;51.466;6.806;2023-07-20T07:18:02;1.35;;;1.00;;
16579;SDS011;8402;51.466;6.806;2023-07-20T07:20:35;2.47;;;1.10;;
16579;SDS011;8402;51.466;6.806;2023-07-20T07:23:05;1.20;;;1.10;;
16579;SDS011;8402;51.466;6.806;2023-07-20T07:25:35;2.35;;;1.08;;
16579;SDS011;8402;51.466;6.806;2023-07-20T07:28:05;3.70;;;1.25;;
16579;SDS011;8402;51.466;6.806;2023-07-20T07:30:35;1.45;;;1.05;;
16579;SDS011;8402;51.466;6.806;2023-07-20T07:33:05;3.00;;;1.40;;
16579;SDS011;8402;51.466;6.806;2023-07-20T07:35:38;1.73;;;1.08;;
16579;SDS011;8402;51.466;6.806;2023-07-20T07:38:08;2.40;;;1.77;;
16579;SDS011;8402;51.466;6.806;2023-07-20T07:40:58;2.38;;;1.52;;
16579;SDS011;8402;51.466;6.806;2023-07-20T07:43:28;1.77;;;1.27;;
16579;SDS011;8402;51.466;6.806;2023-07-20T07:45:58;1.55;;;1.10;;
16579;SDS011;8402;51.466;6.806;2023-07-20T07:48:28;1.90;;;1.38;;
16579;SDS011;8402;51.466;6.806;2023-07-20T07:51:00;2.38;;;1.40;;
16579;SDS011;8402;51.466;6.806;2023-07-20T07:53:30;4.47;;;1.70;;
16579;SDS011;8402;51.466;6.806;2023-07-20T07:56:06;1.60;;;1.50;;
16579;SDS011;8402;51.466;6.806;2023-07-20T07:58:36;1.65;;;1.45;;
16579;SDS011;8402;51.466;6.806;2023-07-20T08:01:07;1.98;;;1.30;;
16579;SDS011;8402;51.466;6.806;2023-07-20T08:03:37;2.58;;;1.70;;
16579;SDS011;8402;51.466;6.806;2023-07-20T08:06:09;2.70;;;1.08;;
16579;SDS011;8402;51.466;6.806;2023-07-20T08:08:43;1.88;;;1.33;;
16579;SDS011;8402;51.466;6.806;2023-07-20T08:11:12;1.55;;;1.30;;
16579;SDS011;8402;51.466;6.806;2023-07-20T08:13:43;1.33;;;0.98;;
16579;SDS011;8402;51.466;6.806;2023-07-20T08:16:13;3.33;;;1.40;;
16579;SDS011;8402;51.466;6.806;2023-07-20T08:18:43;2.58;;;1.42;;
16579;SDS011;8402;51.466;6.806;2023-07-20T08:21:16;3.90;;;1.42;;
16579;SDS011;8402;51.466;6.806;2023-07-20T08:23:46;2.47;;;1.30;;
16579;SDS011;8402;51.466;6.806;2023-07-20T08:26:19;1.38;;;1.27;;
16579;SDS011;8402;51.466;6.806;2023-07-20T08:28:50;2.35;;;1.00;;
16579;SDS011;8402;51.466;6.806;2023-07-20T08:31:20;2.25;;;1.20;;
16579;SDS011;8402;51.466;6.806;2023-07-20T08:33:50;2.25;;;1.70;;
16579;SDS011;8402;51.466;6.806;2023-07-20T08:36:22;3.25;;;1.88;;
16579;SDS011;8402;51.466;6.806;2023-07-20T08:38:53;1.92;;;1.40;;
16579;SDS011;8402;51.466;6.806;2023-07-20T08:41:23;1.70;;;1.38;;
16579;SDS011;8402;51.466;6.806;2023-07-20T08:43:53;2.08;;;1.42;;
16579;SDS011;8402;51.466;6.806;2023-07-20T08:46:26;1.30;;;1.17;;
16579;SDS011;8402;51.466;6.806;2023-07-20T08:48:58;2.75;;;1.27;;
16579;SDS011;8402;51.466;6.806;2023-07-20T08:51:33;1.77;;;1.20;;
16579;SDS011;8402;51.466;6.806;2023-07-20T08:54:04;1.52;;;1.10;;
16579;SDS011;8402;51.466;6.806;2023-07-20T08:56:38;3.75;;;1.08;;
16579;SDS011;8402;51.466;6.806;2023-07-20T08:59:10;1.40;;;1.00;;
16579;SDS011;8402;51.466;6.806;2023-07-20T09:01:41;1.25;;;1.00;;
16579;SDS011;8402;51.466;6.806;2023-07-20T09:04:13;3.53;;;1.20;;
16579;SDS011;8402;51.466;6.806;2023-07-20T09:06:46;6.32;;;2.55;;
16579;SDS011;8402;51.466;6.806;2023-07-20T09:09:17;2.50;;;2.00;;
16579;SDS011;8402;51.466;6.806;2023-07-20T09:11:47;2.72;;;1.60;;
16579;SDS011;8402;51.466;6.806;2023-07-20T09:14:18;1.85;;;1.63;;
16579;SDS011;8402;51.466;6.806;2023-07-20T09:16:48;2.80;;;1.95;;
16579;SDS011;8402;51.466;6.806;2023-07-20T09:19:18;2.67;;;1.70;;
16579;SDS011;8402;51.466;6.806;2023-07-20T09:21:51;3.10;;;2.70;;
16579;SDS011;8402;51.466;6.806;2023-07-20T09:24:22;4.13;;;2.20;;
16579;SDS011;8402;51.466;6.806;2023-07-20T09:26:52;2.00;;;1.80;;
16579;SDS011;8402;51.466;6.806;2023-07-20T09:29:22;4.47;;;2.05;;
16579;SDS011;8402;51.466;6.806;2023-07-20T09:31:59;3.60;;;2.20;;
16579;SDS011;8402;51.466;6.806;2023-07-20T09:34:30;4.43;;;2.40;;
16579;SDS011;8402;51.466;6.806;2023-07-20T09:37:10;3.72;;;2.72;;
16579;SDS011;8402;51.466;6.806;2023-07-20T09:39:43;3.42;;;2.40;;
16579;SDS011;8402;51.466;6.806;2023-07-20T09:42:16;3.67;;;2.40;;
16579;SDS011;8402;51.466;6.806;2023-07-20T09:44:50;4.47;;;2.40;;
16579;SDS011;8402;51.466;6.806;2023-07-20T09:47:21;3.55;;;2.38;;
16579;SDS011;8402;51.466;6.806;2023-07-20T09:49:57;4.68;;;2.38;;
16579;SDS011;8402;51.466;6.806;2023-07-20T09:52:34;2.92;;;2.03;;
16579;SDS011;8402;51.466;6.806;2023-07-20T09:55:08;3.55;;;2.50;;
16579;SDS011;8402;51.466;6.806;2023-07-20T09:57:38;3.58;;;2.80;;
16579;SDS011;8402;51.466;6.806;2023-07-20T10:00:08;4.70;;;2.97;;
16579;SDS011;8402;51.466;6.806;2023-07-20T10:02:44;6.65;;;3.30;;
16579;SDS011;8402;51.466;6.806;2023-07-20T10:05:15;3.45;;;2.80;;
16579;SDS011;8402;51.466;6.806;2023-07-20T10:07:50;6.35;;;2.67;;
16579;SDS011;8402;51.466;6.806;2023-07-20T10:10:41;3.78;;;3.30;;
16579;SDS011;8402;51.466;6.806;2023-07-20T10:13:13;5.10;;;2.10;;
16579;SDS011;8402;51.466;6.806;2023-07-20T10:15:49;3.63;;;2.35;;
16579;SDS011;8402;51.466;6.806;2023-07-20T10:18:25;4.88;;;1.75;;
16579;SDS011;8402;51.466;6.806;2023-07-20T10:20:59;3.22;;;1.70;;
16579;SDS011;8402;51.466;6.806;2023-07-20T10:23:35;2.22;;;1.88;;
16579;SDS011;8402;51.466;6.806;2023-07-20T10:26:06;1.80;;;1.70;;
16579;SDS011;8402;51.466;6.806;2023-07-20T10:28:37;3.17;;;2.08;;
16579;SDS011;8402;51.466;6.806;2023-07-20T10:31:07;2.70;;;1.90;;
16579;SDS011;8402;51.466;6.806;2023-07-20T10:33:39;2.63;;;1.80;;
16579;SDS011;8402;51.466;6.806;2023-07-20T10:36:11;2.90;;;1.83;;
16579;SDS011;8402;51.466;6.806;2023-07-20T10:38:51;4.25;;;1.65;;
16579;SDS011;8402;51.466;6.806;2023-07-20T10:41:27;2.03;;;1.77;;
16579;SDS011;8402;51.466;6.806;2023-07-20T10:43:58;2.50;;;2.22;;
16579;SDS011;8402;51.466;6.806;2023-07-20T10:46:34;2.25;;;1.90;;
16579;SDS011;8402;51.466;6.806;2023-07-20T10:49:11;4.25;;;2.00;;
16579;SDS011;8402;51.466;6.806;2023-07-20T10:51:42;5.15;;;2.78;;
16579;SDS011;8402;51.466;6.806;2023-07-20T10:54:35;2.90;;;2.05;;
16579;SDS011;8402;51.466;6.806;2023-07-20T10:57:21;2.90;;;2.28;;
16579;SDS011;8402;51.466;6.806;2023-07-20T10:59:49;4.57;;;1.90;;
16579;SDS011;8402;51.466;6.806;2023-07-20T11:02:20;2.65;;;1.67;;
16579;SDS011;8402;51.466;6.806;2023-07-20T11:04:50;2.92;;;1.50;;
16579;SDS011;8402;51.466;6.806;2023-07-20T11:07:35;1.55;;;1.35;;
16579;SDS011;8402;51.466;6.806;2023-07-20T11:10:16;1.33;;;1.20;;
16579;SDS011;8402;51.466;6.806;2023-07-20T11:15:48;3.42;;;1.38;;
16579;SDS011;8402;51.466;6.806;2023-07-20T11:18:33;3.65;;;1.30;;
16579;SDS011;8402;51.466;6.806;2023-07-20T11:21:10;4.00;;;1.27;;
16579;SDS011;8402;51.466;6.806;2023-07-20T11:23:40;2.95;;;1.17;;
16579;SDS011;8402;51.466;6.806;2023-07-20T11:26:15;1.88;;;1.40;;
16579;SDS011;8402;51.466;6.806;2023-07-20T11:28:48;1.75;;;1.40;;
16579;SDS011;8402;51.466;6.806;2023-07-20T11:31:18;3.72;;;1.98;;
16579;SDS011;8402;51.466;6.806;2023-07-20T11:33:48;2.78;;;1.70;;
16579;SDS011;8402;51.466;6.806;2023-07-20T11:36:18;4.05;;;1.63;;
16579;SDS011;8402;51.466;6.806;2023-07-20T11:38:51;4.57;;;1.58;;
16579;SDS011;8402;51.466;6.806;2023-07-20T11:41:24;4.22;;;1.55;;
16579;SDS011;8402;51.466;6.806;2023-07-20T11:43:54;4.85;;;1.70;;
16579;SDS011;8402;51.466;6.806;2023-07-20T11:46:24;2.95;;;1.55;;
16579;SDS011;8402;51.466;6.806;2023-07-20T11:48:58;2.00;;;1.42;;
16579;SDS011;8402;51.466;6.806;2023-07-20T11:51:29;2.40;;;1.55;;
16579;SDS011;8402;51.466;6.806;2023-07-20T11:54:00;2.28;;;1.48;;
16579;SDS011;8402;51.466;6.806;2023-07-20T11:56:34;4.30;;;1.45;;
16579;SDS011;8402;51.466;6.806;2023-07-20T11:59:04;4.03;;;1.50;;
16579;SDS011;8402;51.466;6.806;2023-07-20T12:01:35;2.67;;;0.98;;
16579;SDS011;8402;51.466;6.806;2023-07-20T12:04:05;2.45;;;1.38;;
16579;SDS011;8402;51.466;6.806;2023-07-20T12:06:36;4.63;;;2.28;;
16579;SDS011;8402;51.466;6.806;2023-07-20T12:09:06;5.40;;;1.75;;
16579;SDS011;8402;51.466;6.806;2023-07-20T12:11:48;4.80;;;1.30;;
16579;SDS011;8402;51.466;6.806;2023-07-20T12:14:19;2.75;;;1.23;;
16579;SDS011;8402;51.466;6.806;2023-07-20T12:16:52;3.10;;;1.38;;
16579;SDS011;8402;51.466;6.806;2023-07-20T12:19:24;2.85;;;1.20;;
16579;SDS011;8402;51.466;6.806;2023-07-20T12:21:57;2.92;;;1.30;;
16579;SDS011;8402;51.466;6.806;2023-07-20T12:24:28;1.70;;;1.08;;
16579;SDS011;8402;51.466;6.806;2023-07-20T12:27:02;3.88;;;1.20;;
16579;SDS011;8402;51.466;6.806;2023-07-20T12:29:33;1.38;;;1.08;;
16579;SDS011;8402;51.466;6.806;2023-07-20T12:32:04;2.05;;;1.40;;
16579;SDS011;8402;51.466;6.806;2023-07-20T12:34:35;4.22;;;1.40;;
16579;SDS011;8402;51.466;6.806;2023-07-20T12:37:05;3.85;;;1.38;;
16579;SDS011;8402;51.466;6.806;2023-07-20T12:39:38;4.15;;;1.13;;
16579;SDS011;8402;51.466;6.806;2023-07-20T12:42:16;1.75;;;1.00;;
16579;SDS011;8402;51.466;6.806;2023-07-20T12:44:46;2.22;;;1.30;;
16579;SDS011;8402;51.466;6.806;2023-07-20T12:47:18;1.63;;;1.10;;
16579;SDS011;8402;51.466;6.806;2023-07-20T12:49:49;2.63;;;1.40;;
16579;SDS011;8402;51.466;6.806;2023-07-20T12:52:19;1.77;;;1.40;;
16579;SDS011;8402;51.466;6.806;2023-07-20T12:54:49;2.13;;;1.30;;
16579;SDS011;8402;51.466;6.806;2023-07-20T12:57:27;1.55;;;1.30;;
16579;SDS011;8402;51.466;6.806;2023-07-20T12:59:57;2.85;;;1.60;;
16579;SDS011;8402;51.466;6.806;2023-07-20T13:02:28;2.00;;;1.30;;
16579;SDS011;8402;51.466;6.806;2023-07-20T13:04:58;2.22;;;1.25;;
16579;SDS011;8402;51.466;6.806;2023-07-20T13:07:31;2.28;;;1.25;;
16579;SDS011;8402;51.466;6.806;2023-07-20T13:10:06;2.15;;;1.27;;
16579;SDS011;8402;51.466;6.806;2023-07-20T13:12:39;2.47;;;1.20;;
16579;SDS011;8402;51.466;6.806;2023-07-20T13:15:10;2.58;;;1.30;;
16579;SDS011;8402;51.466;6.806;2023-07-20T13:17:40;1.75;;;1.30;;
16579;SDS011;8402;51.466;6.806;2023-07-20T13:20:10;2.25;;;1.20;;
16579;SDS011;8402;51.466;6.806;2023-07-20T13:22:41;2.15;;;1.15;;
16579;SDS011;8402;51.466;6.806;2023-07-20T13:25:11;1.42;;;1.25;;
16579;SDS011;8402;51.466;6.806;2023-07-20T13:27:44;2.25;;;1.10;;
16579;SDS011;8402;51.466;6.806;2023-07-20T13:30:14;2.17;;;1.20;;
16579;SDS011;8402;51.466;6.806;2023-07-20T13:32:47;2.33;;;1.20;;
16579;SDS011;8402;51.466;6.806;2023-07-20T13:35:17;5.10;;;1.55;;
16579;SDS011;8402;51.466;6.806;2023-07-20T13:37:47;5.10;;;1.60;;
16579;SDS011;8402;51.466;6.806;2023-07-20T13:40:18;6.13;;;1.90;;
16579;SDS011;8402;51.466;6.806;2023-07-20T13:42:52;4.28;;;1.73;;
16579;SDS011;8402;51.466;6.806;2023-07-20T13:45:21;7.15;;;1.80;;
16579;SDS011;8402;51.466;6.806;2023-07-20T13:47:51;3.85;;;1.60;;
16579;SDS011;8402;51.466;6.806;2023-07-20T13:50:22;4.50;;;1.95;;
16579;SDS011;8402;51.466;6.806;2023-07-20T13:53:06;3.20;;;1.60;;
16579;SDS011;8402;51.466;6.806;2023-07-20T13:55:42;5.45;;;1.30;;
16579;SDS011;8402;51.466;6.806;2023-07-20T13:58:17;1.30;;;1.00;;
16579;SDS011;8402;51.466;6.806;2023-07-20T14:00:47;1.42;;;0.98;;
16579;SDS011;8402;51.466;6.806;2023-07-20T14:03:17;2.55;;;1.30;;
16579;SDS011;8402;51.466;6.806;2023-07-20T14:05:47;1.73;;;1.27;;
16579;SDS011;8402;51.466;6.806;2023-07-20T14:08:20;2.65;;;1.27;;
16579;SDS011;8402;51.466;6.806;2023-07-20T14:10:50;3.33;;;1.40;;
16579;SDS011;8402;51.466;6.806;2023-07-20T14:13:25;3.20;;;1.25;;
16579;SDS011;8402;51.466;6.806;2023-07-20T14:16:12;5.75;;;1.75;;
16579;SDS011;8402;51.466;6.806;2023-07-20T14:18:42;2.30;;;1.20;;
16579;SDS011;8402;51.466;6.806;2023-07-20T14:21:15;2.60;;;1.20;;
16579;SDS011;8402;51.466;6.806;2023-07-20T14:23:45;3.28;;;1.50;;
16579;SDS011;8402;51.466;6.806;2023-07-20T14:26:19;1.60;;;1.02;;
16579;SDS011;8402;51.466;6.806;2023-07-20T14:28:52;2.15;;;1.30;;
16579;SDS011;8402;51.466;6.806;2023-07-20T14:31:22;2.00;;;1.30;;
16579;SDS011;8402;51.466;6.806;2023-07-20T14:33:52;3.85;;;0.98;;
16579;SDS011;8402;51.466;6.806;2023-07-20T14:36:25;5.82;;;1.27;;
16579;SDS011;8402;51.466;6.806;2023-07-20T14:38:55;1.50;;;1.10;;
16579;SDS011;8402;51.466;6.806;2023-07-20T14:41:25;1.70;;;1.40;;
16579;SDS011;8402;51.466;6.806;2023-07-20T14:43:58;1.83;;;1.08;;
16579;SDS011;8402;51.466;6.806;2023-07-20T14:46:28;2.08;;;1.27;;
16579;SDS011;8402;51.466;6.806;2023-07-20T14:48:58;1.92;;;1.05;;
16579;SDS011;8402;51.466;6.806;2023-07-20T14:51:29;1.92;;;0.98;;
16579;SDS011;8402;51.466;6.806;2023-07-20T14:54:03;1.77;;;1.10;;
16579;SDS011;8402;51.466;6.806;2023-07-20T14:56:37;2.60;;;1.38;;
16579;SDS011;8402;51.466;6.806;2023-07-20T14:59:10;3.80;;;1.75;;
16579;SDS011;8402;51.466;6.806;2023-07-20T15:01:40;3.60;;;1.80;;
16579;SDS011;8402;51.466;6.806;2023-07-20T15:04:12;5.47;;;1.98;;
16579;SDS011;8402;51.466;6.806;2023-07-20T15:06:42;5.10;;;1.70;;
16579;SDS011;8402;51.466;6.806;2023-07-20T15:09:12;3.05;;;1.80;;
16579;SDS011;8402;51.466;6.806;2023-07-20T15:11:42;3.22;;;1.73;;
16579;SDS011;8402;51.466;6.806;2023-07-20T15:14:14;3.42;;;1.70;;
16579;SDS011;8402;51.466;6.806;2023-07-20T15:16:44;2.75;;;1.48;;
16579;SDS011;8402;51.466;6.806;2023-07-20T15:19:15;2.15;;;1.52;;
16579;SDS011;8402;51.466;6.806;2023-07-20T15:21:45;2.17;;;1.38;;
16579;SDS011;8402;51.466;6.806;2023-07-20T15:24:15;2.83;;;1.30;;
16579;SDS011;8402;51.466;6.806;2023-07-20T15:26:45;3.38;;;1.23;;
16579;SDS011;8402;51.466;6.806;2023-07-20T15:29:17;3.95;;;1.13;;
16579;SDS011;8402;51.466;6.806;2023-07-20T15:31:50;1.27;;;1.00;;